D/T METAR WX W/DIR W/SPE G/SPE TEMP DEWP
25/02/20 13:50 EGSH 251350Z 25013KT 9999 FEW036 SCT047 08/01 Q0996 TEMPO SHRA WSW (250°) 15.0mph 8°C 1°C
25/02/20 13:20 EGSH 251320Z 25015KT 220V280 9999 FEW034 SCT041 07/00 Q0996 WSW (250°) 17.3mph 7°C 0°C
25/02/20 12:50 EGSH 251250Z 25015KT 9999 FEW032 SCT045 07/01 Q0997 NOSIG WSW (250°) 17.3mph 7°C 1°C
25/02/20 12:20 EGSH 251220Z 26013KT 9999 SCT038 07/01 Q0997 W (260°) 15.0mph 7°C 1°C
25/02/20 11:50 EGSH 251150Z 26016KT 9999 SCT038 07/00 Q0997 TEMPO NOSIG W (260°) 18.4mph 7°C 0°C
25/02/20 11:20 EGSH 251120Z 26017KT 9999 FEW025 SCT031 07/01 Q0997 W (260°) 19.6mph 7°C 1°C
25/02/20 10:50 EGSH 251050Z 25016KT 9999 FEW020 SCT032 06/01 Q0998 NOSIG WSW (250°) 18.4mph 6°C 1°C
25/02/20 10:20 EGSH 251020Z 26014KT 230V290 9999 FEW020 SCT032 06/02 Q0998 NOSIG W (260°) 16.1mph 6°C 2°C
25/02/20 09:50 EGSH 250950Z 25017KT 9999 FEW020 SCT032 06/02 Q0998 WSW (250°) 19.6mph 6°C 2°C
25/02/20 09:20 EGSH 250920Z 24014KT 9999 FEW030 SCT036 05/02 Q0998 NOSIG WSW (240°) 16.1mph 5°C 2°C
25/02/20 08:50 EGSH 250850Z 24014KT 200V270 CAVOK 05/02 Q0999 NOSIG WSW (240°) 16.1mph 5°C 2°C
25/02/20 08:20 EGSH 250820Z 24014KT CAVOK 04/01 Q0999 NOSIG WSW (240°) 16.1mph 4°C 1°C
25/02/20 07:50 EGSH 250750Z 23015KT CAVOK 04/01 Q0999 NOSIG SW (230°) 17.3mph 4°C 1°C
25/02/20 07:20 EGSH 250720Z 24014KT CAVOK 04/01 Q0999 NOSIG WSW (240°) 16.1mph 4°C 1°C
25/02/20 06:50 EGSH 250650Z 24011KT CAVOK 04/01 Q0999 NOSIG WSW (240°) 12.7mph 4°C 1°C
25/02/20 06:20 EGSH 250620Z 23012KT CAVOK 04/01 Q0999 NOSIG SW (230°) 13.8mph 4°C 1°C
25/02/20 05:50 EGSH 250550Z 24012KT CAVOK 04/02 Q1000 NOSIG WSW (240°) 13.8mph 4°C 2°C
25/02/20 05:20 EGSH 250520Z AUTO 24013KT 9999 NCD 04/02 Q1000 WSW (240°) 15.0mph 4°C 2°C
25/02/20 04:50 EGSH 250450Z AUTO 24013KT 9999 NCD 04/02 Q1000 NOSIG WSW (240°) 15.0mph 4°C 2°C
25/02/20 04:20 EGSH 250420Z AUTO 25011KT 9999 NCD 04/02 Q1000 NOSIG WSW (250°) 12.7mph 4°C 2°C
25/02/20 03:50 EGSH 250350Z AUTO 25011KT 9999 FEW030/// 04/02 Q1000 NOSIG WSW (250°) 12.7mph 4°C 2°C
25/02/20 03:20 EGSH 250320Z AUTO 25011KT 9999 FEW041/// 05/01 Q1000 NOSIG WSW (250°) 12.7mph 5°C 1°C
25/02/20 02:20 EGSH 250220Z AUTO 24010KT 9999 NCD 05/02 Q1001 WSW (240°) 11.5mph 5°C 2°C
25/02/20 01:50 EGSH 250150Z AUTO 25013KT 9999 NCD 05/02 Q1001 NOSIG WSW (250°) 15.0mph 5°C 2°C
25/02/20 01:20 EGSH 250120Z AUTO 25014KT 9999 NCD 06/02 Q1001 NOSIG WSW (250°) 16.1mph 6°C 2°C
25/02/20 00:50 EGSH 250050Z AUTO 25015KT 9999 NCD 06/02 Q1001 WSW (250°) 17.3mph 6°C 2°C
25/02/20 00:20 EGSH 250020Z AUTO 25013KT 9999 NCD 06/02 Q1001 WSW (250°) 15.0mph 6°C 2°C
24/02/20 23:50 EGSH 242350Z AUTO 25013KT 9999 NCD 06/02 Q1001 WSW (250°) 15.0mph 6°C 2°C
24/02/20 23:20 EGSH 242320Z AUTO 26016KT 9999 FEW036/// 07/02 Q1001 NOSIG W (260°) 18.4mph 7°C 2°C
24/02/20 22:50 EGSH 242250Z AUTO 25016KT 9999 NCD 07/01 Q1001 NOSIG WSW (250°) 18.4mph 7°C 1°C
24/02/20 22:20 EGSH 242220Z AUTO 26015KT 9999 NCD 07/01 Q1001 NOSIG W (260°) 17.3mph 7°C 1°C
24/02/20 21:50 EGSH 242150Z AUTO 26018G28KT 9999 NCD 08/02 Q1000 W (260°) 20.7mph 32.2mph 8°C 2°C
24/02/20 21:20 EGSH 242120Z 27019G29KT 240V300 9999 FEW032 08/01 Q1000 NOSIG W (270°) 21.9mph 33.4mph 8°C 1°C
24/02/20 20:50 EGSH 242050Z 28021G34KT 9999 FEW028 SCT032 BKN039 08/03 Q1000 NOSIG W (280°) 24.2mph 39.1mph 8°C 3°C
24/02/20 20:20 EGSH 242020Z 27022G32KT 9999 FEW031 SCT047 10/04 Q1000 W (270°) 25.3mph 36.8mph 10°C 4°C
24/02/20 19:50 EGSH 241950Z 25020KT 9999 FEW032 SCT042 11/07 Q0999 NOSIG WSW (250°) 23.0mph 11°C 7°C
24/02/20 19:20 EGSH 241920Z 24018G28KT 9999 FEW048 11/08 Q0999 WSW (240°) 20.7mph 32.2mph 11°C 8°C
24/02/20 18:50 EGSH 241850Z 24020KT 9999 FEW024 SCT040 11/08 Q0999 WSW (240°) 23.0mph 11°C 8°C
24/02/20 18:20 EGSH 241820Z 24021KT 9999 FEW048 11/08 Q0998 NOSIG WSW (240°) 24.2mph 11°C 8°C
24/02/20 17:50 EGSH 241750Z 24022KT 9999 FEW020 12/08 Q0998 NOSIG WSW (240°) 25.3mph 12°C 8°C
24/02/20 17:20 EGSH 241720Z 24023G34KT 9999 FEW020 12/09 Q0998 WSW (240°) 26.5mph 39.1mph 12°C 9°C
24/02/20 16:50 EGSH 241650Z 23024G36KT 9999 FEW018 SCT041 12/09 Q0998 NOSIG SW (230°) 27.6mph 41.4mph 12°C 9°C
24/02/20 16:20 EGSH 241620Z 24023G33KT 200V270 9999 SCT016 SCT022 12/09 Q0998 WSW (240°) 26.5mph 38.0mph 12°C 9°C
24/02/20 15:50 EGSH 241550Z 23023G34KT 9999 SCT016 BKN021 12/10 Q0998 NOSIG SW (230°) 26.5mph 39.1mph 12°C 10°C
24/02/20 15:20 EGSH 241520Z 23025G40KT 9999 SCT016 BKN021 12/09 Q0999 NOSIG SW (230°) 28.8mph 46.0mph 12°C 9°C
24/02/20 14:50 EGSH 241450Z 23023G34KT 9999 FEW015 BKN020 12/10 Q0999 SW (230°) 26.5mph 39.1mph 12°C 10°C
24/02/20 14:20 EGSH 241420Z 23025G37KT 9999 FEW014 BKN018 12/10 Q0999 NOSIG SW (230°) 28.8mph 42.6mph 12°C 10°C
24/02/20 13:50 EGSH 241350Z 23022KT 9999 FEW013 BKN018 12/10 Q1000 NOSIG SW (230°) 25.3mph 12°C 10°C